createdAt,value
2017-09-12T00:00:30.870Z,92.6
2017-09-12T00:01:31.677Z,93.1
2017-09-12T00:02:32.801Z,93.9
2017-09-12T00:03:33.530Z,93.6
2017-09-12T00:04:34.268Z,94.2
2017-09-12T00:05:35.062Z,92.7
2017-09-12T00:06:35.851Z,93.4
2017-09-12T00:07:36.884Z,93.0
2017-09-12T00:08:37.612Z,93.9
2017-09-12T00:09:38.320Z,94.3
2017-09-12T00:10:39.050Z,94.6
2017-09-12T00:11:39.772Z,94.6
2017-09-12T00:12:40.971Z,93.9
2017-09-12T00:13:41.703Z,94.4
2017-09-12T00:14:42.490Z,94.0
2017-09-12T00:15:43.288Z,94.7
2017-09-12T00:16:44.030Z,93.1
2017-09-12T00:17:44.814Z,92.6
2017-09-12T00:18:45.556Z,92.7
2017-09-12T00:19:46.373Z,92.0
2017-09-12T00:20:47.459Z,91.6
2017-09-12T00:21:48.255Z,92.3
2017-09-12T00:22:48.983Z,92.1
2017-09-12T00:23:49.716Z,91.8
2017-09-12T00:24:50.515Z,92.3
2017-09-12T00:25:51.501Z,92.6
2017-09-12T00:26:52.229Z,92.2
2017-09-12T00:27:52.930Z,91.8
2017-09-12T00:28:53.655Z,91.7
2017-09-12T00:29:54.394Z,91.8
2017-09-12T00:30:55.480Z,92.2
2017-09-12T00:31:56.221Z,92.6
2017-09-12T00:32:56.997Z,92.2
2017-09-12T00:33:57.737Z,92.7
2017-09-12T00:34:58.544Z,92.7
2017-09-12T00:35:59.629Z,92.6
2017-09-12T00:37:00.342Z,93.0
2017-09-12T00:38:01.078Z,93.4
2017-09-12T00:39:01.861Z,93.5
2017-09-12T00:40:02.656Z,92.9
2017-09-12T00:41:03.584Z,91.9
2017-09-12T00:42:04.300Z,92.5
2017-09-12T00:43:05.042Z,92.5
2017-09-12T00:44:05.840Z,92.3
2017-09-12T00:45:06.636Z,93.1
2017-09-12T00:46:07.824Z,93.2
2017-09-12T00:47:08.624Z,92.6
2017-09-12T00:48:09.351Z,93.8
2017-09-12T00:49:10.153Z,93.4
2017-09-12T00:50:10.958Z,93.5
2017-09-12T00:51:11.694Z,92.8
2017-09-12T00:52:12.453Z,92.8
2017-09-12T00:53:13.153Z,93.3
2017-09-12T00:54:13.948Z,93.2
2017-09-12T00:55:15.129Z,93.2
2017-09-12T00:56:15.901Z,93.4
2017-09-12T00:57:16.634Z,93.4
2017-09-12T00:58:17.368Z,93.5
2017-09-12T00:59:18.087Z,93.5
2017-09-12T01:00:19.058Z,93.1
2017-09-12T01:01:19.784Z,93.0
2017-09-12T01:02:20.443Z,93.6
2017-09-12T01:03:21.227Z,93.5
2017-09-12T01:04:22.003Z,93.5
2017-09-12T01:05:23.089Z,93.1
2017-09-12T01:06:23.862Z,92.8
2017-09-12T01:07:24.654Z,92.7
2017-09-12T01:08:25.398Z,92.6
2017-09-12T01:09:26.201Z,93.2
2017-09-12T01:10:26.929Z,93.3
2017-09-12T01:11:28.058Z,93.9
2017-09-12T01:12:28.800Z,93.7
2017-09-12T01:13:29.600Z,93.8
2017-09-12T01:14:30.343Z,92.6
2017-09-12T01:15:31.075Z,93.1
2017-09-12T01:16:32.060Z,93.2
2017-09-12T01:17:32.830Z,92.8
2017-09-12T01:18:33.563Z,91.6
2017-09-12T01:19:34.290Z,91.7
2017-09-12T01:20:35.028Z,92.5
2017-09-12T01:21:36.168Z,92.0
2017-09-12T01:22:36.890Z,91.6
2017-09-12T01:23:37.624Z,91.9
2017-09-12T01:24:38.353Z,92.0
2017-09-12T01:25:39.090Z,91.2
2017-09-12T01:26:40.176Z,91.0
2017-09-12T01:27:40.979Z,91.2
2017-09-12T01:28:41.765Z,90.8
2017-09-12T01:29:42.564Z,91.6
2017-09-12T01:30:43.283Z,91.4
2017-09-12T01:31:44.408Z,91.0
2017-09-12T01:32:45.139Z,91.4
2017-09-12T01:33:45.870Z,91.2
2017-09-12T01:34:46.593Z,92.1
2017-09-12T01:35:47.326Z,91.6
2017-09-12T01:36:48.121Z,91.1
2017-09-12T01:37:48.865Z,91.8
2017-09-12T01:38:50.068Z,91.0
2017-09-12T01:39:50.796Z,91.5
2017-09-12T01:40:51.588Z,91.9
2017-09-12T01:41:52.316Z,91.1
2017-09-12T01:42:53.121Z,91.1
2017-09-12T01:43:53.989Z,91.2
2017-09-12T01:44:54.730Z,91.4
2017-09-12T01:45:55.534Z,92.2
2017-09-12T01:46:56.270Z,91.5
2017-09-12T01:47:57.054Z,91.2
2017-09-12T01:48:58.583Z,92.3
2017-09-12T01:49:59.323Z,91.9
2017-09-12T01:51:00.053Z,92.3
2017-09-12T01:52:00.875Z,92.2
2017-09-12T01:53:01.724Z,92.7
2017-09-12T01:54:02.448Z,92.7
2017-09-12T01:55:03.585Z,92.1
2017-09-12T01:56:04.314Z,92.1
2017-09-12T01:57:05.086Z,91.7
2017-09-12T01:58:05.890Z,92.4
2017-09-12T01:59:06.623Z,93.0
2017-09-12T02:00:07.600Z,91.7
2017-09-12T02:01:08.347Z,92.0
2017-09-12T02:02:09.141Z,91.5
2017-09-12T02:03:09.811Z,91.9
2017-09-12T02:04:10.536Z,92.1
2017-09-12T02:05:11.643Z,92.3
2017-09-12T02:06:12.446Z,92.0
2017-09-12T02:07:13.259Z,91.8
2017-09-12T02:08:14.042Z,92.2
2017-09-12T02:09:14.766Z,92.8
2017-09-12T02:10:15.730Z,92.8
2017-09-12T02:11:16.454Z,92.0
2017-09-12T02:12:17.190Z,92.8
2017-09-12T02:13:17.995Z,92.0
2017-09-12T02:14:18.724Z,91.8
2017-09-12T02:15:19.804Z,92.4
2017-09-12T02:16:20.574Z,92.0
2017-09-12T02:17:21.299Z,92.0
2017-09-12T02:18:22.034Z,91.8
2017-09-12T02:19:22.765Z,91.8
2017-09-12T02:20:23.895Z,91.6
2017-09-12T02:21:24.665Z,92.5
2017-09-12T02:22:25.388Z,91.4
2017-09-12T02:23:26.202Z,91.9
2017-09-12T02:24:27.015Z,92.7
2017-09-12T02:25:28.160Z,92.3
2017-09-12T02:26:28.902Z,92.1
2017-09-12T02:27:29.696Z,92.0
2017-09-12T02:28:30.504Z,91.7
2017-09-12T02:29:31.266Z,91.9
2017-09-12T02:30:32.055Z,91.7
2017-09-12T02:31:32.784Z,92.0
2017-09-12T02:32:33.505Z,92.0
2017-09-12T02:33:34.312Z,92.4
2017-09-12T02:34:35.122Z,92.8
2017-09-12T02:35:36.575Z,92.4
2017-09-12T02:36:37.305Z,92.3
2017-09-12T02:37:38.035Z,92.4
2017-09-12T02:38:38.754Z,92.4
2017-09-12T02:39:39.502Z,92.7
2017-09-12T02:40:40.693Z,92.4
2017-09-12T02:41:41.479Z,91.9
2017-09-12T02:42:42.199Z,92.0
2017-09-12T02:43:42.940Z,92.4
2017-09-12T02:44:43.720Z,92.0
2017-09-12T02:45:44.480Z,91.8
2017-09-12T02:46:45.267Z,92.2
2017-09-12T02:47:46.433Z,92.1
2017-09-12T02:48:47.236Z,91.9
2017-09-12T02:49:48.047Z,91.9
2017-09-12T02:50:48.787Z,92.5
2017-09-12T02:51:49.549Z,92.6
2017-09-12T02:52:50.702Z,92.7
2017-09-12T02:53:51.426Z,93.4
2017-09-12T02:54:52.155Z,92.3
2017-09-12T02:55:52.948Z,92.3
2017-09-12T02:56:53.732Z,92.9
2017-09-12T02:57:54.881Z,92.7
2017-09-12T02:58:55.602Z,93.5
2017-09-12T02:59:56.346Z,93.3
2017-09-12T03:00:57.147Z,93.6
2017-09-12T03:01:57.923Z,92.6
2017-09-12T03:02:58.644Z,92.7
2017-09-12T03:03:59.373Z,93.6
2017-09-12T03:05:00.451Z,93.6
2017-09-12T03:06:01.187Z,93.4
2017-09-12T03:07:01.969Z,92.7
2017-09-12T03:08:02.736Z,92.6
2017-09-12T03:09:03.502Z,92.6
2017-09-12T03:10:04.492Z,92.7
2017-09-12T03:11:05.302Z,93.4
2017-09-12T03:12:06.083Z,93.5
2017-09-12T03:13:06.812Z,92.9
2017-09-12T03:14:07.541Z,93.1
2017-09-12T03:15:08.784Z,92.5
2017-09-12T03:16:09.505Z,93.4
2017-09-12T03:17:10.242Z,94.2
2017-09-12T03:18:10.974Z,93.9
2017-09-12T03:19:11.763Z,93.8
2017-09-12T03:20:12.743Z,94.1
2017-09-12T03:21:13.493Z,93.5
2017-09-12T03:22:14.287Z,94.0
2017-09-12T03:23:15.075Z,92.6
2017-09-12T03:24:15.872Z,93.5
2017-09-12T03:25:16.844Z,93.7
2017-09-12T03:26:17.573Z,94.1
2017-09-12T03:27:18.370Z,94.2
2017-09-12T03:28:19.109Z,93.7
2017-09-12T03:29:19.875Z,93.5
2017-09-12T03:30:20.905Z,94.0
2017-09-12T03:31:21.715Z,94.7
2017-09-12T03:32:22.513Z,94.1
2017-09-12T03:33:23.311Z,94.4
2017-09-12T03:34:24.041Z,94.6
2017-09-12T03:35:25.016Z,94.5
2017-09-12T03:36:25.743Z,94.1
2017-09-12T03:37:26.543Z,93.7
2017-09-12T03:38:27.291Z,94.2
2017-09-12T03:39:28.041Z,93.9
2017-09-12T03:40:29.124Z,94.3
2017-09-12T03:41:29.863Z,94.9
2017-09-12T03:42:30.638Z,94.4
2017-09-12T03:43:31.376Z,95.3
2017-09-12T03:44:32.100Z,95.5
2017-09-12T03:45:33.077Z,95.7
2017-09-12T03:46:33.803Z,95.6
2017-09-12T03:47:34.529Z,95.7
2017-09-12T03:48:35.261Z,95.7
2017-09-12T03:49:35.989Z,96.4
2017-09-12T03:50:37.068Z,96.4
2017-09-12T03:51:37.798Z,96.8
2017-09-12T03:52:38.559Z,96.5
2017-09-12T03:53:39.295Z,96.5
2017-09-12T03:54:40.019Z,97.7
2017-09-12T03:55:40.957Z,97.5
2017-09-12T03:56:41.713Z,97.3
2017-09-12T03:57:42.445Z,97.4
2017-09-12T03:58:43.237Z,97.5
2017-09-12T03:59:44.037Z,97.8
2017-09-12T04:00:45.177Z,98.0
2017-09-12T04:01:45.960Z,98.4
2017-09-12T04:02:46.691Z,98.4
2017-09-12T04:03:47.492Z,98.9
2017-09-12T04:04:48.301Z,98.9
2017-09-12T04:05:49.401Z,99.4
2017-09-12T04:06:50.203Z,99.7
2017-09-12T04:07:50.994Z,99.7
2017-09-12T04:08:51.776Z,99.4
2017-09-12T04:09:52.448Z,99.5
2017-09-12T04:10:53.379Z,100.0
2017-09-12T04:11:54.111Z,99.9
2017-09-12T04:12:54.919Z,99.8
2017-09-12T04:13:55.640Z,99.9
2017-09-12T04:14:56.362Z,99.7
2017-09-12T04:15:57.461Z,99.7
2017-09-12T04:16:58.184Z,99.8
2017-09-12T04:17:58.913Z,99.8
2017-09-12T04:18:59.636Z,99.8
2017-09-12T04:20:00.448Z,99.9
2017-09-12T04:21:01.601Z,100.0
2017-09-12T04:22:02.395Z,99.7
2017-09-12T04:23:03.118Z,100.0
2017-09-12T04:24:03.845Z,99.7
2017-09-12T04:25:04.581Z,100.0
2017-09-12T04:26:05.385Z,100.0
2017-09-12T04:27:06.365Z,100.0
2017-09-12T04:28:07.173Z,100.0
2017-09-12T04:29:07.913Z,100.0
2017-09-12T04:30:08.641Z,100.0
2017-09-12T04:31:09.370Z,100.0
2017-09-12T04:32:10.394Z,100.0
2017-09-12T04:33:11.135Z,99.7
2017-09-12T04:34:11.854Z,99.9
2017-09-12T04:35:12.582Z,100.0
2017-09-12T04:36:13.383Z,99.7
2017-09-12T04:37:14.355Z,99.9
2017-09-12T04:38:15.084Z,99.2
2017-09-12T04:39:15.874Z,99.4
2017-09-12T04:40:16.614Z,99.4
2017-09-12T04:41:17.353Z,99.0
2017-09-12T04:42:18.385Z,99.4
2017-09-12T04:43:19.114Z,99.0
2017-09-12T04:44:19.842Z,99.1
2017-09-12T04:45:20.624Z,98.8
2017-09-12T04:46:21.398Z,99.1
2017-09-12T04:47:22.325Z,99.4
2017-09-12T04:48:23.061Z,98.5
2017-09-12T04:49:23.786Z,98.4
2017-09-12T04:50:24.595Z,98.7
2017-09-12T04:51:25.401Z,98.2
2017-09-12T04:52:26.595Z,97.8
2017-09-12T04:53:27.328Z,98.6
2017-09-12T04:54:28.149Z,98.5
2017-09-12T04:55:28.952Z,98.6
2017-09-12T04:56:29.770Z,97.6
2017-09-12T04:57:30.554Z,98.2
2017-09-12T04:58:31.628Z,97.8
2017-09-12T04:59:32.392Z,97.8
2017-09-12T05:00:33.124Z,98.1
2017-09-12T05:01:33.863Z,98.6
2017-09-12T05:02:34.601Z,97.9
2017-09-12T05:03:35.696Z,97.4
2017-09-12T05:04:36.446Z,98.2
2017-09-12T05:05:37.172Z,98.3
2017-09-12T05:06:37.911Z,99.0
2017-09-12T05:07:38.684Z,98.6
2017-09-12T05:08:39.825Z,98.5
2017-09-12T05:09:40.638Z,98.1
2017-09-12T05:10:41.363Z,99.1
2017-09-12T05:11:42.093Z,98.6
2017-09-12T05:12:42.825Z,98.4
2017-09-12T05:13:43.613Z,98.1
2017-09-12T05:14:44.342Z,97.1
2017-09-12T05:15:45.086Z,97.7
2017-09-12T05:16:46.226Z,97.9
2017-09-12T05:17:47.015Z,97.7
2017-09-12T05:18:47.815Z,98.4
2017-09-12T05:19:48.622Z,98.3
2017-09-12T05:20:49.345Z,98.1
2017-09-12T05:21:50.369Z,98.6
2017-09-12T05:22:51.167Z,98.5
2017-09-12T05:23:51.902Z,98.2
2017-09-12T05:24:52.642Z,98.2
2017-09-12T05:25:53.372Z,97.9
2017-09-12T05:26:54.103Z,98.2
2017-09-12T05:27:55.086Z,97.7
2017-09-12T05:28:55.822Z,97.2
2017-09-12T05:29:56.593Z,98.0
2017-09-12T05:30:57.327Z,98.2
2017-09-12T05:31:58.067Z,97.8
2017-09-12T05:32:59.264Z,97.2
2017-09-12T05:34:00.068Z,97.1
2017-09-12T05:35:00.804Z,97.2
2017-09-12T05:36:01.544Z,97.5
2017-09-12T05:37:02.345Z,98.2
2017-09-12T05:38:03.375Z,97.4
2017-09-12T05:39:04.093Z,97.9
2017-09-12T05:40:04.833Z,98.4
2017-09-12T05:41:05.606Z,98.3
2017-09-12T05:42:06.342Z,97.2
2017-09-12T05:43:07.376Z,97.5
2017-09-12T05:44:08.111Z,97.6
2017-09-12T05:45:08.850Z,97.7
2017-09-12T05:46:09.661Z,96.9
2017-09-12T05:47:10.392Z,97.9
2017-09-12T05:48:11.489Z,98.0
2017-09-12T05:49:12.217Z,97.5
2017-09-12T05:50:12.973Z,97.7
2017-09-12T05:51:13.707Z,97.4
2017-09-12T05:52:14.432Z,97.4
2017-09-12T05:53:15.188Z,98.1
2017-09-12T05:54:15.924Z,97.3
2017-09-12T05:55:16.662Z,97.6
2017-09-12T05:56:17.643Z,96.9
2017-09-12T05:57:18.442Z,97.8
2017-09-12T05:58:19.183Z,97.3
2017-09-12T05:59:19.912Z,97.5
2017-09-12T06:00:20.694Z,97.7
2017-09-12T06:01:21.829Z,97.1
2017-09-12T06:02:22.563Z,97.2
2017-09-12T06:03:23.354Z,97.4
2017-09-12T06:04:24.163Z,96.8
2017-09-12T06:05:24.897Z,96.9
2017-09-12T06:06:25.934Z,96.9
2017-09-12T06:07:26.661Z,96.7
2017-09-12T06:08:27.472Z,97.3
2017-09-12T06:09:28.209Z,97.3
2017-09-12T06:10:28.960Z,96.7
2017-09-12T06:11:29.987Z,96.9
2017-09-12T06:12:30.724Z,97.7
2017-09-12T06:13:31.536Z,97.6
2017-09-12T06:14:32.274Z,97.1
2017-09-12T06:15:33.092Z,96.9
2017-09-12T06:16:34.227Z,97.4
2017-09-12T06:17:34.957Z,97.2
2017-09-12T06:18:35.693Z,97.5
2017-09-12T06:19:36.505Z,97.1
2017-09-12T06:20:37.296Z,97.4
2017-09-12T06:21:38.315Z,97.4
2017-09-12T06:22:39.137Z,97.3
2017-09-12T06:23:39.898Z,97.2
2017-09-12T06:24:40.638Z,96.8
2017-09-12T06:25:41.428Z,97.2
2017-09-12T06:26:42.561Z,97.2
2017-09-12T06:27:43.297Z,97.4
2017-09-12T06:28:44.022Z,97.2
2017-09-12T06:29:44.775Z,97.4
2017-09-12T06:30:45.573Z,97.3
2017-09-12T06:31:46.605Z,97.6
2017-09-12T06:32:47.406Z,97.6
2017-09-12T06:33:48.152Z,97.5
2017-09-12T06:34:48.876Z,97.3
2017-09-12T06:35:49.607Z,97.9
2017-09-12T06:36:50.354Z,97.8
2017-09-12T06:37:51.139Z,98.3
2017-09-12T06:38:52.291Z,97.8
2017-09-12T06:39:53.091Z,97.6
2017-09-12T06:40:53.833Z,97.6
2017-09-12T06:41:54.563Z,98.3
2017-09-12T06:42:55.303Z,98.6
2017-09-12T06:43:56.433Z,98.3
2017-09-12T06:44:57.164Z,98.4
2017-09-12T06:45:57.892Z,98.8
2017-09-12T06:46:58.624Z,98.2
2017-09-12T06:47:59.454Z,97.9
2017-09-12T06:49:00.249Z,97.6
2017-09-12T06:50:01.025Z,97.3
2017-09-12T06:51:02.156Z,97.5
2017-09-12T06:52:02.946Z,97.7
2017-09-12T06:53:03.682Z,96.6
2017-09-12T06:54:04.414Z,96.5
2017-09-12T06:55:05.144Z,97.0
2017-09-12T06:56:05.943Z,96.9
2017-09-12T06:57:06.668Z,97.0
2017-09-12T06:58:07.463Z,96.4
2017-09-12T06:59:08.203Z,95.6
2017-09-12T07:00:08.953Z,96.0
2017-09-12T07:01:09.993Z,94.9
2017-09-12T07:02:10.753Z,95.3
2017-09-12T07:03:11.550Z,94.9
2017-09-12T07:04:12.372Z,94.8
2017-09-12T07:05:13.166Z,94.5
2017-09-12T07:06:14.253Z,94.6
2017-09-12T07:07:14.993Z,94.2
2017-09-12T07:08:15.735Z,94.5
2017-09-12T07:09:16.537Z,94.9
2017-09-12T07:10:17.293Z,95.9
2017-09-12T07:11:18.334Z,97.3
2017-09-12T07:12:19.081Z,97.3
2017-09-12T07:13:19.818Z,96.8
2017-09-12T07:14:20.611Z,96.8
2017-09-12T07:15:21.345Z,96.5
2017-09-12T07:16:22.281Z,96.8
2017-09-12T07:17:23.021Z,96.5
2017-09-12T07:18:23.794Z,97.5
2017-09-12T07:19:24.604Z,97.5
2017-09-12T07:20:25.336Z,98.3
2017-09-12T07:21:26.424Z,97.2
2017-09-12T07:22:27.167Z,97.9
2017-09-12T07:23:27.895Z,97.4
2017-09-12T07:24:28.702Z,97.5
2017-09-12T07:25:29.433Z,97.5
2017-09-12T07:26:30.611Z,97.1
2017-09-12T07:27:31.366Z,97.2
2017-09-12T07:28:32.161Z,97.0
2017-09-12T07:29:32.896Z,97.1
2017-09-12T07:30:33.710Z,97.4
2017-09-12T07:31:34.464Z,97.4
2017-09-12T07:32:35.198Z,97.5
2017-09-12T07:33:35.939Z,96.9
2017-09-12T07:34:37.141Z,97.1
2017-09-12T07:35:37.874Z,96.5
2017-09-12T07:36:38.696Z,96.2
2017-09-12T07:37:39.433Z,95.4
2017-09-12T07:38:40.173Z,95.7
2017-09-12T07:39:41.275Z,95.2
2017-09-12T07:40:42.076Z,95.7
2017-09-12T07:41:42.869Z,95.3
2017-09-12T07:42:43.657Z,95.3
2017-09-12T07:43:44.460Z,95.3
2017-09-12T07:44:45.623Z,95.6
2017-09-12T07:45:46.354Z,95.6
2017-09-12T07:46:47.094Z,95.8
2017-09-12T07:47:47.904Z,95.7
2017-09-12T07:48:48.637Z,94.5
2017-09-12T07:49:49.672Z,94.8
2017-09-12T07:50:50.414Z,94.7
2017-09-12T07:51:51.213Z,94.7
2017-09-12T07:52:51.953Z,95.4
2017-09-12T07:53:52.682Z,94.8
2017-09-12T07:54:53.414Z,95.0
2017-09-12T07:55:54.623Z,94.7
2017-09-12T07:56:55.363Z,94.7
2017-09-12T07:57:56.184Z,94.6
2017-09-12T07:58:56.923Z,94.7
2017-09-12T07:59:57.657Z,94.7
2017-09-12T08:00:58.641Z,94.8
2017-09-12T08:01:59.382Z,94.0
2017-09-12T08:03:00.133Z,94.0
2017-09-12T08:04:00.820Z,94.0
2017-09-12T08:05:01.608Z,94.2
2017-09-12T08:06:02.410Z,94.7
2017-09-12T08:07:03.219Z,94.8
2017-09-12T08:08:03.954Z,94.2
2017-09-12T08:09:04.684Z,93.5
2017-09-12T08:10:05.488Z,92.8
2017-09-12T08:11:06.482Z,92.3
2017-09-12T08:12:07.227Z,91.9
2017-09-12T08:13:08.017Z,92.2
2017-09-12T08:14:08.792Z,91.7
2017-09-12T08:15:09.531Z,92.2
2017-09-12T08:16:10.722Z,92.5
2017-09-12T08:17:11.461Z,92.3
2017-09-12T08:18:12.206Z,91.7
2017-09-12T08:19:13.004Z,92.1
2017-09-12T08:20:13.792Z,91.8
2017-09-12T08:21:14.835Z,92.5
2017-09-12T08:22:15.659Z,91.9
2017-09-12T08:23:16.439Z,91.6
2017-09-12T08:24:17.268Z,91.5
2017-09-12T08:25:18.007Z,92.4
2017-09-12T08:26:19.082Z,91.8
2017-09-12T08:27:19.874Z,91.0
2017-09-12T08:28:20.614Z,91.9
2017-09-12T08:29:21.352Z,91.6
2017-09-12T08:30:22.087Z,92.1
2017-09-12T08:31:23.304Z,91.1
2017-09-12T08:32:24.043Z,90.6
2017-09-12T08:33:24.779Z,90.4
2017-09-12T08:34:25.574Z,87.4
2017-09-12T08:35:26.383Z,87.8
2017-09-12T08:36:27.112Z,87.8
2017-09-12T08:37:27.854Z,87.4
2017-09-12T08:38:28.695Z,87.9
2017-09-12T08:39:29.433Z,87.1
2017-09-12T08:40:30.172Z,86.8
2017-09-12T08:41:31.212Z,86.2
2017-09-12T08:42:31.952Z,85.6
2017-09-12T08:43:32.698Z,84.3
2017-09-12T08:44:33.425Z,83.3
2017-09-12T08:45:34.253Z,82.2
2017-09-12T08:46:35.072Z,83.2
2017-09-12T08:47:36.162Z,83.2
2017-09-12T08:48:36.963Z,84.3
2017-09-12T08:49:37.702Z,83.2
2017-09-12T08:50:38.434Z,82.5
2017-09-12T08:51:39.169Z,82.5
2017-09-12T08:52:40.262Z,82.5
2017-09-12T08:53:41.005Z,81.9
2017-09-12T08:54:41.748Z,80.6
2017-09-12T08:55:42.474Z,80.1
2017-09-12T08:56:43.212Z,79.6
2017-09-12T08:57:44.313Z,79.5
2017-09-12T08:58:45.132Z,78.6
2017-09-12T08:59:45.863Z,78.6
2017-09-12T09:00:46.601Z,79.3
2017-09-12T09:01:47.356Z,79.2
2017-09-12T09:02:48.423Z,79.2
2017-09-12T09:03:49.164Z,80.1
2017-09-12T09:04:49.982Z,79.8
2017-09-12T09:05:50.735Z,79.3
2017-09-12T09:06:51.512Z,79.5
2017-09-12T09:07:52.491Z,79.4
2017-09-12T09:08:53.275Z,78.3
2017-09-12T09:09:54.063Z,77.6
2017-09-12T09:10:54.792Z,78.3
2017-09-12T09:11:55.538Z,78.3
2017-09-12T09:12:56.692Z,76.6
2017-09-12T09:13:57.433Z,76.8
2017-09-12T09:14:58.173Z,76.8
2017-09-12T09:15:58.922Z,78.3
2017-09-12T09:16:59.683Z,79.2
2017-09-12T09:18:00.773Z,79.4
2017-09-12T09:19:01.513Z,79.2
2017-09-12T09:20:02.248Z,78.8
2017-09-12T09:21:02.992Z,78.4
2017-09-12T09:22:03.735Z,78.3
2017-09-12T09:23:04.894Z,80.1
2017-09-12T09:24:05.650Z,82.5
2017-09-12T09:25:06.422Z,83.8
2017-09-12T09:26:07.169Z,85.1
2017-09-12T09:27:07.963Z,85.1
2017-09-12T09:28:08.962Z,85.6
2017-09-12T09:29:09.702Z,87.5
2017-09-12T09:30:10.448Z,87.4
2017-09-12T09:31:11.247Z,86.8
2017-09-12T09:32:11.982Z,87.0
2017-09-12T09:33:13.028Z,88.1
2017-09-12T09:34:13.767Z,88.0
2017-09-12T09:35:14.498Z,88.7
2017-09-12T09:36:15.244Z,89.6
2017-09-12T09:37:16.001Z,90.0
2017-09-12T09:38:17.142Z,90.7
2017-09-12T09:39:17.872Z,90.9
2017-09-12T09:40:18.610Z,89.5
2017-09-12T09:41:19.363Z,89.5
2017-09-12T09:42:20.162Z,89.5
2017-09-12T09:43:21.111Z,90.5
2017-09-12T09:44:21.918Z,90.2
2017-09-12T09:45:22.718Z,89.9
2017-09-12T09:46:23.504Z,89.8
2017-09-12T09:47:24.324Z,92.0
2017-09-12T09:48:25.133Z,90.5
2017-09-12T09:49:25.936Z,93.2
2017-09-12T09:50:26.678Z,94.3
2017-09-12T09:51:27.478Z,94.6
2017-09-12T09:52:28.213Z,94.5
2017-09-12T09:53:28.942Z,93.7
2017-09-12T09:54:30.036Z,94.6
2017-09-12T09:55:30.817Z,94.0
2017-09-12T09:56:31.613Z,93.9
2017-09-12T09:57:32.352Z,94.9
2017-09-12T09:58:33.087Z,94.0
2017-09-12T09:59:34.375Z,94.7
2017-09-12T10:00:35.203Z,96.4
2017-09-12T10:01:35.943Z,96.8
2017-09-12T10:02:36.682Z,94.9
2017-09-12T10:03:37.426Z,94.4
2017-09-12T10:04:38.583Z,91.2
2017-09-12T10:05:39.329Z,87.8
2017-09-12T10:06:40.136Z,87.9
2017-09-12T10:07:40.919Z,87.3
2017-09-12T10:08:41.665Z,86.3
2017-09-12T10:09:42.733Z,83.2
2017-09-12T10:10:43.473Z,83.3
2017-09-12T10:11:44.282Z,80.5
2017-09-12T10:12:45.023Z,78.5
2017-09-12T10:13:45.759Z,78.5
2017-09-12T10:14:46.580Z,78.0
2017-09-12T10:15:47.364Z,76.8
2017-09-12T10:16:48.172Z,76.8
2017-09-12T10:17:49.228Z,77.2
2017-09-12T10:18:50.013Z,74.5
2017-09-12T10:19:50.813Z,72.7
2017-09-12T10:20:51.547Z,71.9
2017-09-12T10:21:52.271Z,73.2
2017-09-12T10:22:53.403Z,71.7
2017-09-12T10:23:54.141Z,73.9
2017-09-12T10:24:54.880Z,75.5
2017-09-12T10:25:55.683Z,74.9
2017-09-12T10:26:56.441Z,74.7
2017-09-12T10:27:57.522Z,74.7
2017-09-12T10:28:58.257Z,75.3
2017-09-12T10:29:59.061Z,77.4
2017-09-12T10:30:59.796Z,76.7
2017-09-12T10:32:00.614Z,77.0
2017-09-12T10:33:01.703Z,76.6
2017-09-12T10:34:02.431Z,74.0
2017-09-12T10:35:03.159Z,72.2
2017-09-12T10:36:03.896Z,73.1
2017-09-12T10:37:04.644Z,72.1
2017-09-12T10:38:05.836Z,69.6
2017-09-12T10:39:06.633Z,70.0
2017-09-12T10:40:07.379Z,68.4
2017-09-12T10:41:08.112Z,69.6
2017-09-12T10:42:08.851Z,70.0
2017-09-12T10:43:09.894Z,70.8
2017-09-12T10:44:10.702Z,71.6
2017-09-12T10:45:11.451Z,72.8
2017-09-12T10:46:12.190Z,72.6
2017-09-12T10:47:12.931Z,72.7
2017-09-12T10:48:14.130Z,73.2
2017-09-12T10:49:14.871Z,74.2
2017-09-12T10:50:15.609Z,74.3
2017-09-12T10:51:16.432Z,75.3
2017-09-12T10:52:17.171Z,74.3
2017-09-12T10:53:17.913Z,72.3
2017-09-12T10:54:18.653Z,72.0
2017-09-12T10:55:19.692Z,71.2
2017-09-12T10:56:20.493Z,70.4
2017-09-12T10:57:21.234Z,67.9
2017-09-12T10:58:22.042Z,71.0
2017-09-12T10:59:22.783Z,67.5
2017-09-12T11:00:23.927Z,67.6
2017-09-12T11:01:24.671Z,66.3
2017-09-12T11:02:25.444Z,66.7
2017-09-12T11:03:26.180Z,67.4
2017-09-12T11:04:26.924Z,70.1
2017-09-12T11:05:28.129Z,70.9
2017-09-12T11:06:28.952Z,70.9
2017-09-12T11:07:29.711Z,71.2
2017-09-12T11:08:30.482Z,70.9
2017-09-12T11:09:31.246Z,71.7
2017-09-12T11:10:32.024Z,71.3
2017-09-12T11:11:33.083Z,70.9
2017-09-12T11:12:33.844Z,71.1
2017-09-12T11:13:34.632Z,67.6
2017-09-12T11:14:35.395Z,66.3
2017-09-12T11:15:36.207Z,65.5
2017-09-12T11:16:37.242Z,64.6
2017-09-12T11:17:37.986Z,66.4
2017-09-12T11:18:38.809Z,66.8
2017-09-12T11:19:39.593Z,66.3
2017-09-12T11:20:40.335Z,65.7
2017-09-12T11:21:41.488Z,65.2
2017-09-12T11:22:42.307Z,64.5
2017-09-12T11:23:43.085Z,64.7
2017-09-12T11:24:43.823Z,65.8
2017-09-12T11:25:44.559Z,64.8
2017-09-12T11:26:45.784Z,65.6
2017-09-12T11:27:46.604Z,66.5
2017-09-12T11:28:47.402Z,67.0
2017-09-12T11:29:48.143Z,69.3
2017-09-12T11:30:48.891Z,71.4
2017-09-12T11:31:49.973Z,75.4
2017-09-12T11:32:50.802Z,79.8
2017-09-12T11:33:51.546Z,81.0
2017-09-12T11:34:52.342Z,80.8
2017-09-12T11:35:53.085Z,80.9
2017-09-12T11:36:54.232Z,78.6
2017-09-12T11:37:55.021Z,77.5
2017-09-12T11:38:55.793Z,76.7
2017-09-12T11:39:56.543Z,75.7
2017-09-12T11:40:57.284Z,72.9
2017-09-12T11:41:58.260Z,72.3
2017-09-12T11:42:59.002Z,71.4
2017-09-12T11:43:59.741Z,74.3
2017-09-12T11:45:00.473Z,73.6
2017-09-12T11:46:01.194Z,75.4
2017-09-12T11:47:02.227Z,74.3
2017-09-12T11:48:02.940Z,73.0
2017-09-12T11:49:03.728Z,73.8
2017-09-12T11:50:04.524Z,73.8
2017-09-12T11:51:05.275Z,73.8
2017-09-12T11:52:06.262Z,75.2
2017-09-12T11:53:07.008Z,71.1
2017-09-12T11:54:07.822Z,69.4
2017-09-12T11:55:08.574Z,68.8
2017-09-12T11:56:09.334Z,66.2
2017-09-12T11:57:10.386Z,67.3
2017-09-12T11:58:11.126Z,66.1
2017-09-12T11:59:11.870Z,62.6
2017-09-12T12:00:12.593Z,64.1
2017-09-12T12:01:13.332Z,64.1
2017-09-12T12:02:14.380Z,64.1
2017-09-12T12:03:15.123Z,62.4
2017-09-12T12:04:15.857Z,61.9
2017-09-12T12:05:16.605Z,60.9
2017-09-12T12:06:17.414Z,60.5
2017-09-12T12:07:18.452Z,61.7
2017-09-12T12:08:19.197Z,60.5
2017-09-12T12:09:19.943Z,61.6
2017-09-12T12:10:20.682Z,61.6
2017-09-12T12:11:21.432Z,62.3
2017-09-12T12:12:22.575Z,61.4
2017-09-12T12:13:23.410Z,63.6
2017-09-12T12:14:24.194Z,64.6
2017-09-12T12:15:24.943Z,63.8
2017-09-12T12:16:25.759Z,64.1
2017-09-12T12:17:26.591Z,64.9
2017-09-12T12:18:27.333Z,63.4
2017-09-12T12:19:28.462Z,62.6
2017-09-12T12:20:29.194Z,62.4
2017-09-12T12:21:30.010Z,61.9
2017-09-12T12:22:30.753Z,62.9
2017-09-12T12:23:31.493Z,62.7
2017-09-12T12:24:32.639Z,61.7
2017-09-12T12:25:33.433Z,61.7
2017-09-12T12:26:34.170Z,59.4
2017-09-12T12:27:34.924Z,60.3
2017-09-12T12:28:35.675Z,59.8
2017-09-12T12:29:36.733Z,60.2
2017-09-12T12:30:37.469Z,58.9
2017-09-12T12:31:38.212Z,60.2
2017-09-12T12:32:38.963Z,60.1
2017-09-12T12:33:39.712Z,60.1
2017-09-12T12:34:40.813Z,59.5
2017-09-12T12:35:41.612Z,57.4
2017-09-12T12:36:42.343Z,60.4
2017-09-12T12:37:43.099Z,59.1
2017-09-12T12:38:43.913Z,58.5
2017-09-12T12:39:44.862Z,59.5
2017-09-12T12:40:45.598Z,60.3
2017-09-12T12:41:46.406Z,60.7
2017-09-12T12:42:47.153Z,60.0
2017-09-12T12:43:47.893Z,61.6
2017-09-12T12:44:49.084Z,63.8
2017-09-12T12:45:49.882Z,63.2
2017-09-12T12:46:50.616Z,64.0
2017-09-12T12:47:51.367Z,63.9
2017-09-12T12:48:52.147Z,65.0
2017-09-12T12:49:53.113Z,63.6
2017-09-12T12:50:53.869Z,61.6
2017-09-12T12:51:54.658Z,63.3
2017-09-12T12:52:55.477Z,63.5
2017-09-12T12:53:56.293Z,61.7
2017-09-12T12:54:57.344Z,61.3
2017-09-12T12:55:58.083Z,61.3
2017-09-12T12:56:58.826Z,60.1
2017-09-12T12:57:59.578Z,60.1
2017-09-12T12:59:00.381Z,60.1
2017-09-12T13:00:01.466Z,59.4
2017-09-12T13:01:02.202Z,60.4
2017-09-12T13:02:02.958Z,61.8
2017-09-12T13:03:03.745Z,62.7
2017-09-12T13:04:04.563Z,61.6
2017-09-12T13:05:05.553Z,59.1
2017-09-12T13:06:06.297Z,58.1
2017-09-12T13:07:07.092Z,58.0
2017-09-12T13:08:07.834Z,60.2
2017-09-12T13:09:08.642Z,60.0
2017-09-12T13:10:09.795Z,58.9
2017-09-12T13:11:10.603Z,61.1
2017-09-12T13:12:11.400Z,61.8
2017-09-12T13:13:12.175Z,61.7
2017-09-12T13:14:12.913Z,62.6
2017-09-12T13:15:13.943Z,62.6
2017-09-12T13:16:14.673Z,60.7
2017-09-12T13:17:15.414Z,60.8
2017-09-12T13:18:16.153Z,60.1
2017-09-12T13:19:16.892Z,60.0
2017-09-12T13:20:17.983Z,59.6
2017-09-12T13:21:18.722Z,58.8
2017-09-12T13:22:19.475Z,57.3
2017-09-12T13:23:20.283Z,57.5
2017-09-12T13:24:21.034Z,60.1
2017-09-12T13:25:21.846Z,59.2
2017-09-12T13:26:22.624Z,59.8
2017-09-12T13:27:23.612Z,61.3
2017-09-12T13:28:24.363Z,60.3
2017-09-12T13:29:25.104Z,60.4